Time;durP1;ratioP1;P1;durP2;ratioP2;P2;SDS_P1;SDS_P2;PMS_P1;PMS_P2;Temp;Humidity;BMP_temperature;BMP_pressure;BME280_temperature;BME280_humidity;BME280_pressure;Samples;Min_cycle;Max_cycle;Signal;HPM_P1;HPM_P2
2023/07/25 00:00:30;;;;;;;11.75;4.03;;;14.80;99.90;;;;;;4978655;28;20058;-73
2023/07/25 00:02:56;;;;;;;7.78;3.50;;;14.80;99.90;;;;;;4983677;28;20046;-73
2023/07/25 00:05:22;;;;;;;7.20;3.60;;;14.80;99.90;;;;;;4970814;28;20095;-72
2023/07/25 00:07:47;;;;;;;9.63;3.88;;;14.70;99.90;;;;;;4970186;28;20057;-71
2023/07/25 00:10:13;;;;;;;8.60;4.28;;;14.70;99.90;;;;;;4982751;28;20066;-72
2023/07/25 00:12:39;;;;;;;8.45;3.97;;;14.70;99.90;;;;;;4964329;28;20054;-73
2023/07/25 00:15:05;;;;;;;10.77;4.10;;;14.70;99.90;;;;;;4958588;28;20046;-72
2023/07/25 00:17:31;;;;;;;10.68;4.03;;;14.60;99.90;;;;;;4997186;28;20122;-72
2023/07/25 00:19:57;;;;;;;12.52;4.13;;;14.60;99.90;;;;;;4990367;28;20671;-71
2023/07/25 00:22:23;;;;;;;6.65;3.70;;;14.60;99.90;;;;;;4968078;28;20038;-72
2023/07/25 00:24:49;;;;;;;8.60;3.67;;;14.50;99.90;;;;;;4986929;28;20050;-72
2023/07/25 00:27:14;;;;;;;10.50;4.18;;;14.50;99.90;;;;;;4961139;28;20038;-71
2023/07/25 00:29:40;;;;;;;9.65;3.67;;;14.50;99.90;;;;;;4982953;28;20528;-72
2023/07/25 00:32:06;;;;;;;10.10;3.92;;;14.50;99.90;;;;;;4990868;28;20046;-71
2023/07/25 00:34:32;;;;;;;9.15;4.20;;;14.40;99.90;;;;;;4981325;28;20077;-71
2023/07/25 00:36:58;;;;;;;9.55;3.88;;;14.40;99.90;;;;;;4969801;28;20550;-72
2023/07/25 00:39:24;;;;;;;8.18;3.88;;;14.30;99.90;;;;;;4976588;28;20457;-71
2023/07/25 00:41:50;;;;;;;9.48;3.97;;;14.40;99.90;;;;;;4969030;28;20052;-72
2023/07/25 00:44:15;;;;;;;7.80;4.15;;;14.30;99.90;;;;;;4980855;28;20077;-73
2023/07/25 00:46:42;;;;;;;8.73;3.92;;;14.30;99.90;;;;;;4976521;28;20141;-72
2023/07/25 00:49:08;;;;;;;6.68;3.97;;;14.30;99.90;;;;;;4984986;28;20093;-70
2023/07/25 00:51:34;;;;;;;10.80;4.05;;;14.20;99.90;;;;;;4977571;28;21472;-72
2023/07/25 00:54:00;;;;;;;9.48;3.88;;;14.20;99.90;;;;;;4984071;28;20057;-72
2023/07/25 00:56:26;;;;;;;8.80;3.88;;;14.20;99.90;;;;;;4982672;28;20057;-72
2023/07/25 00:58:52;;;;;;;10.27;3.72;;;14.20;99.90;;;;;;4983779;28;20049;-71
2023/07/25 01:01:18;;;;;;;9.85;3.95;;;14.20;99.90;;;;;;4980329;28;20592;-71
2023/07/25 01:03:44;;;;;;;11.18;3.80;;;14.10;99.90;;;;;;4977781;28;20137;-72
2023/07/25 01:06:12;;;;;;;10.07;3.90;;;14.10;99.90;;;;;;4996608;28;20049;-71
2023/07/25 01:09:04;;;;;;;7.30;4.00;;;14.10;99.90;;;;;;4968976;28;20084;-72
2023/07/25 01:11:30;;;;;;;7.63;3.85;;;14.10;99.90;;;;;;4956108;28;20062;-72
2023/07/25 01:13:56;;;;;;;9.80;4.30;;;14.00;99.90;;;;;;4963834;28;20521;-71
2023/07/25 01:16:24;;;;;;;8.48;4.10;;;14.00;99.90;;;;;;4963357;28;20062;-73
2023/07/25 01:18:51;;;;;;;10.88;4.57;;;14.00;99.90;;;;;;4985036;28;20493;-71
2023/07/25 01:21:17;;;;;;;11.02;4.65;;;13.90;99.90;;;;;;4980928;28;20104;-70
2023/07/25 01:23:44;;;;;;;9.43;4.57;;;14.00;99.90;;;;;;4983724;28;20092;-72
2023/07/25 01:26:10;;;;;;;8.23;4.60;;;13.90;99.90;;;;;;4981230;28;20046;-71
2023/07/25 01:28:37;;;;;;;11.05;4.80;;;13.90;99.90;;;;;;4990331;28;20067;-70
2023/07/25 01:31:03;;;;;;;9.82;4.28;;;13.90;99.90;;;;;;4986782;28;20112;-71
2023/07/25 01:33:28;;;;;;;9.50;4.55;;;13.80;99.90;;;;;;4965719;28;20056;-70
2023/07/25 01:35:54;;;;;;;12.18;4.65;;;13.80;99.90;;;;;;4978184;28;20038;-70
2023/07/25 01:38:20;;;;;;;9.23;4.63;;;13.80;99.90;;;;;;4969424;28;20145;-70
2023/07/25 01:40:45;;;;;;;8.80;4.65;;;13.80;99.90;;;;;;4973738;28;20049;-70
2023/07/25 01:43:11;;;;;;;8.60;4.57;;;13.80;99.90;;;;;;4984214;28;20084;-71
2023/07/25 01:45:37;;;;;;;9.65;4.38;;;13.70;99.90;;;;;;4963611;28;20057;-70
2023/07/25 01:48:02;;;;;;;8.43;4.35;;;13.60;99.90;;;;;;4973558;28;20556;-70
2023/07/25 01:50:29;;;;;;;10.27;4.82;;;13.70;99.90;;;;;;4982200;28;20050;-70
2023/07/25 01:52:55;;;;;;;9.52;4.25;;;13.70;99.90;;;;;;4971764;28;20049;-70
2023/07/25 01:55:21;;;;;;;7.65;4.15;;;13.60;99.90;;;;;;4993684;28;20551;-70
2023/07/25 01:57:47;;;;;;;9.15;4.50;;;13.60;99.90;;;;;;4967566;28;20092;-71
2023/07/25 02:00:13;;;;;;;9.50;4.70;;;13.60;99.90;;;;;;4992049;28;20140;-71
2023/07/25 02:02:38;;;;;;;8.88;4.18;;;13.60;99.90;;;;;;4974093;28;20043;-72
2023/07/25 02:05:05;;;;;;;8.73;4.43;;;13.60;99.90;;;;;;4991755;28;20099;-71
2023/07/25 02:07:30;;;;;;;8.57;4.40;;;13.60;99.90;;;;;;4987004;28;20053;-71
2023/07/25 02:09:56;;;;;;;8.30;4.28;;;13.70;99.90;;;;;;4966825;28;21864;-71
2023/07/25 02:12:22;;;;;;;9.52;4.50;;;13.60;99.90;;;;;;4970929;28;20065;-71
2023/07/25 02:14:48;;;;;;;7.93;4.20;;;13.60;99.90;;;;;;4977955;28;20046;-70
2023/07/25 02:17:13;;;;;;;11.45;4.93;;;13.60;99.90;;;;;;4966218;28;20393;-71
2023/07/25 02:19:39;;;;;;;9.25;4.05;;;13.60;99.90;;;;;;4995771;28;20107;-72
2023/07/25 02:22:05;;;;;;;8.05;4.22;;;13.50;99.90;;;;;;4982863;28;20182;-72
2023/07/25 02:24:31;;;;;;;6.57;4.07;;;13.50;99.90;;;;;;5007371;28;20084;-72
2023/07/25 02:26:57;;;;;;;9.82;4.25;;;13.50;99.90;;;;;;4986619;28;20038;-73
2023/07/25 02:29:23;;;;;;;11.52;4.85;;;13.50;99.90;;;;;;4983488;28;21132;-71
2023/07/25 02:31:48;;;;;;;8.98;4.40;;;13.40;99.90;;;;;;4962598;28;20205;-72
2023/07/25 02:34:17;;;;;;;10.10;4.80;;;13.50;99.90;;;;;;4983720;28;20050;-72
2023/07/25 02:36:43;;;;;;;6.15;4.15;;;13.40;99.90;;;;;;4988219;28;20160;-71
2023/07/25 02:39:09;;;;;;;8.95;4.95;;;13.40;99.90;;;;;;4991040;28;20171;-70
2023/07/25 02:41:35;;;;;;;8.85;4.57;;;13.30;99.90;;;;;;4978801;28;20056;-71
2023/07/25 02:44:02;;;;;;;8.07;5.05;;;13.30;99.90;;;;;;4982091;28;20060;-71
2023/07/25 02:46:28;;;;;;;11.50;4.20;;;13.30;99.90;;;;;;4978893;28;20049;-71
2023/07/25 02:48:54;;;;;;;8.70;4.60;;;13.30;99.90;;;;;;4982468;28;20050;-71
2023/07/25 02:51:19;;;;;;;9.35;4.70;;;13.30;99.90;;;;;;4967576;28;20050;-70
2023/07/25 02:53:45;;;;;;;9.13;4.93;;;13.30;99.90;;;;;;4969094;28;20061;-71
2023/07/25 02:56:11;;;;;;;10.15;4.85;;;13.20;99.90;;;;;;4974738;28;20073;-71
2023/07/25 02:58:37;;;;;;;8.20;4.80;;;13.20;99.90;;;;;;4980953;28;20054;-71
2023/07/25 03:01:03;;;;;;;8.90;5.10;;;13.20;99.90;;;;;;4995121;28;20136;-73
2023/07/25 03:03:29;;;;;;;8.88;4.82;;;13.20;99.90;;;;;;4997037;28;20441;-72
2023/07/25 03:05:54;;;;;;;10.00;5.05;;;13.20;99.90;;;;;;4987290;28;20042;-72
2023/07/25 03:08:20;;;;;;;8.45;4.20;;;13.20;99.90;;;;;;4991487;28;20136;-72
2023/07/25 03:10:46;;;;;;;10.27;4.90;;;13.20;99.90;;;;;;4994491;28;20132;-70
2023/07/25 03:13:11;;;;;;;8.95;4.90;;;13.20;99.90;;;;;;4975611;28;20046;-71
2023/07/25 03:15:37;;;;;;;10.82;4.97;;;13.10;99.90;;;;;;4966835;28;20046;-71
2023/07/25 03:18:03;;;;;;;10.07;5.38;;;13.10;99.90;;;;;;4986922;28;20051;-72
2023/07/25 03:20:29;;;;;;;9.95;5.22;;;13.10;99.90;;;;;;4981329;28;20411;-72
2023/07/25 03:22:55;;;;;;;8.50;5.10;;;13.10;99.90;;;;;;4993859;28;20469;-71
2023/07/25 03:25:21;;;;;;;9.00;5.18;;;13.10;99.90;;;;;;4968424;28;20048;-72
2023/07/25 03:27:47;;;;;;;9.32;4.85;;;13.10;99.90;;;;;;4978712;28;20516;-72
2023/07/25 03:30:12;;;;;;;11.32;4.60;;;13.10;99.90;;;;;;4991609;28;20056;-70
2023/07/25 03:32:38;;;;;;;9.10;4.85;;;13.10;99.90;;;;;;4980082;28;20191;-72
2023/07/25 03:35:04;;;;;;;9.60;4.60;;;13.10;99.90;;;;;;4997770;28;20046;-71
2023/07/25 03:37:30;;;;;;;10.52;5.55;;;13.10;99.90;;;;;;4967786;28;20508;-71
2023/07/25 03:39:56;;;;;;;8.52;4.72;;;13.00;99.90;;;;;;4978123;28;20038;-71
2023/07/25 03:42:21;;;;;;;10.23;4.95;;;13.10;99.90;;;;;;4974683;28;20034;-71
2023/07/25 03:44:47;;;;;;;9.90;5.30;;;13.10;99.90;;;;;;4980501;28;20124;-72
2023/07/25 03:47:13;;;;;;;11.40;5.47;;;13.10;99.90;;;;;;4985162;28;20046;-72
2023/07/25 03:49:39;;;;;;;12.32;6.07;;;13.10;99.90;;;;;;4994064;28;20667;-71
2023/07/25 03:52:05;;;;;;;11.23;5.30;;;13.10;99.90;;;;;;4983431;28;20042;-72
2023/07/25 03:54:30;;;;;;;8.88;4.82;;;13.10;99.90;;;;;;4968296;28;20081;-72
2023/07/25 03:56:56;;;;;;;10.48;4.80;;;13.10;99.90;;;;;;4999525;28;20205;-71
2023/07/25 03:59:22;;;;;;;10.23;5.30;;;13.10;99.90;;;;;;4984969;28;20724;-75
2023/07/25 04:01:48;;;;;;;11.75;5.55;;;13.10;99.90;;;;;;4989506;28;20050;-71
2023/07/25 04:04:13;;;;;;;9.52;4.93;;;13.10;99.90;;;;;;4983169;28;20084;-72
2023/07/25 04:06:39;;;;;;;8.95;5.40;;;13.10;99.90;;;;;;4991016;28;20054;-74
2023/07/25 04:09:05;;;;;;;8.85;5.05;;;13.10;99.90;;;;;;4987443;28;20440;-72
2023/07/25 04:11:30;;;;;;;10.80;5.72;;;13.10;99.90;;;;;;4964328;28;21628;-72
2023/07/25 04:13:56;;;;;;;15.02;6.43;;;13.10;99.90;;;;;;4974130;28;20453;-73
2023/07/25 04:16:22;;;;;;;11.65;5.68;;;13.10;99.90;;;;;;4980321;28;20042;-71
2023/07/25 04:18:48;;;;;;;8.52;5.25;;;13.10;99.90;;;;;;4961399;28;20056;-73
2023/07/25 04:21:14;;;;;;;11.25;5.45;;;13.10;99.90;;;;;;5000914;28;20043;-73
2023/07/25 04:23:40;;;;;;;10.45;5.88;;;13.10;99.90;;;;;;4987933;28;20841;-71
2023/07/25 04:26:05;;;;;;;9.93;5.53;;;13.10;99.90;;;;;;4982453;28;20120;-72
2023/07/25 04:28:31;;;;;;;9.15;5.85;;;13.10;99.90;;;;;;4991068;28;20065;-73
2023/07/25 04:30:57;;;;;;;10.35;6.18;;;13.10;99.90;;;;;;4975499;28;21298;-72
2023/07/25 04:33:22;;;;;;;13.18;6.47;;;13.10;99.90;;;;;;4969792;28;20088;-72
2023/07/25 04:35:48;;;;;;;11.10;6.60;;;13.10;99.90;;;;;;4976245;28;20881;-73
2023/07/25 04:38:14;;;;;;;9.90;5.50;;;13.10;99.90;;;;;;4986773;28;20046;-73
2023/07/25 04:40:41;;;;;;;12.38;5.40;;;13.20;99.90;;;;;;4986570;28;20145;-73
2023/07/25 04:43:07;;;;;;;9.73;5.45;;;13.20;99.90;;;;;;4985850;28;20440;-73
2023/07/25 04:45:33;;;;;;;9.75;5.50;;;13.20;99.90;;;;;;4987063;28;20049;-73
2023/07/25 04:47:58;;;;;;;10.50;5.75;;;13.30;99.90;;;;;;4967451;28;20108;-72
2023/07/25 04:50:24;;;;;;;11.27;5.43;;;13.20;99.90;;;;;;4986418;28;20514;-72
2023/07/25 04:52:50;;;;;;;10.95;6.03;;;13.30;99.90;;;;;;4982172;28;20167;-73
2023/07/25 04:55:15;;;;;;;11.73;5.30;;;13.30;99.90;;;;;;4981490;28;20041;-72
2023/07/25 04:57:41;;;;;;;11.07;5.50;;;13.30;99.90;;;;;;4988551;28;20038;-73
2023/07/25 05:00:07;;;;;;;10.55;5.65;;;13.30;99.90;;;;;;4984504;28;20054;-73
2023/07/25 05:02:33;;;;;;;10.15;6.15;;;13.30;99.90;;;;;;4981502;28;20066;-72
2023/07/25 05:04:58;;;;;;;11.23;6.20;;;13.40;99.90;;;;;;4987109;28;20037;-71
2023/07/25 05:07:24;;;;;;;12.02;6.57;;;13.40;99.90;;;;;;4962633;28;20054;-73
2023/07/25 05:09:50;;;;;;;12.30;6.18;;;13.40;99.90;;;;;;4968856;28;20050;-71
2023/07/25 05:12:15;;;;;;;11.15;5.88;;;13.50;99.90;;;;;;4984363;28;20046;-72
2023/07/25 05:14:41;;;;;;;13.45;5.68;;;13.50;99.90;;;;;;4978795;28;20081;-70
2023/07/25 05:17:07;;;;;;;10.25;5.82;;;13.60;99.90;;;;;;4979795;28;20044;-73
2023/07/25 05:19:33;;;;;;;11.77;5.80;;;13.60;99.90;;;;;;4984321;28;20057;-71
2023/07/25 05:21:58;;;;;;;12.70;5.90;;;13.70;99.90;;;;;;4979686;28;20048;-73
2023/07/25 05:24:25;;;;;;;12.82;5.20;;;13.70;99.90;;;;;;4968068;28;22354;-74
2023/07/25 05:26:51;;;;;;;13.48;5.80;;;13.70;99.90;;;;;;4962084;28;20050;-74
2023/07/25 05:29:16;;;;;;;10.95;5.05;;;13.80;99.90;;;;;;4971789;28;20041;-73
2023/07/25 05:31:42;;;;;;;14.73;5.32;;;13.80;99.90;;;;;;4990183;28;20081;-72
2023/07/25 05:34:08;;;;;;;9.38;4.78;;;13.80;99.90;;;;;;4989532;28;20030;-77
2023/07/25 05:36:34;;;;;;;12.18;5.43;;;13.90;99.90;;;;;;4983432;28;20039;-76
2023/07/25 05:39:00;;;;;;;13.05;4.97;;;14.00;99.90;;;;;;4974224;28;20033;-75
2023/07/25 05:41:26;;;;;;;8.98;4.40;;;13.90;99.90;;;;;;4996069;28;20088;-76
2023/07/25 05:43:52;;;;;;;9.20;4.57;;;14.00;99.90;;;;;;4987254;28;20854;-74
2023/07/25 05:46:18;;;;;;;10.77;5.05;;;14.10;99.90;;;;;;4978367;28;20058;-75
2023/07/25 05:48:45;;;;;;;9.93;5.00;;;14.20;99.90;;;;;;4998478;28;20984;-72
2023/07/25 05:51:10;;;;;;;10.45;5.30;;;14.20;99.90;;;;;;4987348;28;20046;-77
2023/07/25 05:53:36;;;;;;;10.05;4.22;;;14.30;99.90;;;;;;4979884;28;20034;-75
2023/07/25 05:56:02;;;;;;;10.85;4.60;;;14.30;99.90;;;;;;4993745;28;20136;-77
2023/07/25 05:58:28;;;;;;;9.93;4.40;;;14.40;99.90;;;;;;4982413;28;20057;-76
2023/07/25 06:00:54;;;;;;;12.55;4.78;;;14.40;99.90;;;;;;4981093;28;20058;-74
2023/07/25 06:03:20;;;;;;;10.05;4.65;;;14.50;99.90;;;;;;4977042;28;20052;-74
2023/07/25 06:05:45;;;;;;;13.52;4.70;;;14.50;99.90;;;;;;4967390;28;20952;-72
2023/07/25 06:08:11;;;;;;;10.18;4.63;;;14.60;99.90;;;;;;4965795;28;20589;-73
2023/07/25 06:10:38;;;;;;;11.35;4.55;;;14.60;99.90;;;;;;4977525;28;20501;-74
2023/07/25 06:13:04;;;;;;;11.45;5.07;;;14.70;99.90;;;;;;4985784;28;20053;-74
2023/07/25 06:15:33;;;;;;;11.10;4.65;;;14.80;99.90;;;;;;4978439;28;20050;-75
2023/07/25 06:18:02;;;;;;;12.80;4.25;;;14.80;99.90;;;;;;4976429;28;20568;-73
2023/07/25 06:20:28;;;;;;;10.95;4.35;;;14.80;99.90;;;;;;4980049;28;20054;-72
2023/07/25 06:22:54;;;;;;;12.13;4.22;;;14.90;99.90;;;;;;4978481;28;20049;-73
2023/07/25 06:25:20;;;;;;;12.43;4.32;;;14.90;99.90;;;;;;4966823;28;20085;-73
2023/07/25 06:27:46;;;;;;;11.02;4.43;;;14.90;99.90;;;;;;4975277;28;20413;-76
2023/07/25 06:30:12;;;;;;;10.60;4.25;;;15.00;99.90;;;;;;4982550;28;20038;-78
2023/07/25 06:32:41;;;;;;;7.22;3.63;;;15.00;99.90;;;;;;4973204;28;20477;-85
2023/07/25 06:35:07;;;;;;;10.38;3.70;;;15.10;99.90;;;;;;4979312;28;20042;-75
2023/07/25 06:37:35;;;;;;;9.10;3.60;;;15.10;99.90;;;;;;4986213;28;20046;-75
2023/07/25 06:40:01;;;;;;;8.38;3.95;;;15.20;99.90;;;;;;4982162;28;20048;-76
2023/07/25 06:42:28;;;;;;;12.00;3.92;;;15.20;99.90;;;;;;4973879;28;20050;-77
2023/07/25 06:44:57;;;;;;;11.27;3.70;;;15.30;99.90;;;;;;4978207;28;21815;-73
2023/07/25 06:47:24;;;;;;;12.05;3.42;;;15.30;99.90;;;;;;4987716;28;20038;-76
2023/07/25 06:49:50;;;;;;;9.18;2.92;;;15.30;99.90;;;;;;4982812;28;20034;-78
2023/07/25 06:52:16;;;;;;;8.03;2.77;;;15.40;99.90;;;;;;4976075;28;20053;-72
2023/07/25 06:54:43;;;;;;;9.23;2.30;;;15.50;99.90;;;;;;4979457;28;20792;-75
2023/07/25 06:57:09;;;;;;;10.68;2.80;;;15.60;99.90;;;;;;5006036;28;20571;-76
2023/07/25 06:59:35;;;;;;;11.25;2.70;;;15.70;99.90;;;;;;4986166;28;20380;-75
2023/07/25 07:02:01;;;;;;;9.40;2.70;;;15.80;99.90;;;;;;4969842;28;20062;-75
2023/07/25 07:04:27;;;;;;;10.13;2.80;;;15.90;99.90;;;;;;4967342;28;20082;-76
2023/07/25 07:06:52;;;;;;;9.13;2.05;;;16.00;99.90;;;;;;4968099;28;20524;-76
2023/07/25 07:09:18;;;;;;;9.88;2.53;;;16.10;99.90;;;;;;4987499;28;20046;-78
2023/07/25 07:11:44;;;;;;;10.63;2.60;;;16.10;99.90;;;;;;4994760;28;21261;-75
2023/07/25 07:14:10;;;;;;;7.15;2.10;;;16.10;99.90;;;;;;4980961;28;20037;-77
2023/07/25 07:16:35;;;;;;;10.70;2.58;;;16.20;99.90;;;;;;4995607;28;20038;-75
2023/07/25 07:19:01;;;;;;;9.45;2.60;;;16.20;99.90;;;;;;4981731;28;20553;-76
2023/07/25 07:21:27;;;;;;;16.90;2.80;;;16.30;99.90;;;;;;4984425;28;20057;-75
2023/07/25 07:23:53;;;;;;;9.15;2.50;;;16.30;99.90;;;;;;4972573;28;20740;-76
2023/07/25 07:26:18;;;;;;;10.80;2.53;;;16.40;99.90;;;;;;4984259;28;20045;-78
2023/07/25 07:28:45;;;;;;;10.27;2.17;;;16.50;99.90;;;;;;4989021;28;20049;-79
2023/07/25 07:31:12;;;;;;;8.77;2.30;;;16.50;99.90;;;;;;4982491;28;20077;-78
2023/07/25 07:33:38;;;;;;;10.00;2.33;;;16.60;99.90;;;;;;4981387;28;20115;-76
2023/07/25 07:36:04;;;;;;;8.27;2.05;;;16.60;99.90;;;;;;4982806;28;21082;-73
2023/07/25 07:38:30;;;;;;;8.00;2.15;;;16.60;99.90;;;;;;4975960;28;20093;-75
2023/07/25 07:40:55;;;;;;;9.85;2.40;;;16.70;99.90;;;;;;4983520;28;20050;-75
2023/07/25 07:43:21;;;;;;;7.85;2.10;;;16.70;99.90;;;;;;4972245;28;20042;-75
2023/07/25 07:45:47;;;;;;;8.05;2.08;;;16.70;99.90;;;;;;4982407;28;20046;-76
2023/07/25 07:48:13;;;;;;;6.95;1.90;;;16.80;99.90;;;;;;4972805;28;20069;-75
2023/07/25 07:50:39;;;;;;;7.85;2.00;;;16.90;99.90;;;;;;4967888;28;20162;-76
2023/07/25 07:53:05;;;;;;;8.02;1.80;;;17.00;99.90;;;;;;4996924;28;20137;-75
2023/07/25 07:55:31;;;;;;;9.95;1.90;;;17.00;99.90;;;;;;4992714;28;20050;-75
2023/07/25 07:57:57;;;;;;;7.85;1.95;;;17.10;99.90;;;;;;4979742;28;20516;-74
2023/07/25 08:00:23;;;;;;;5.72;1.77;;;17.10;99.90;;;;;;4979637;28;20062;-75
2023/07/25 08:02:50;;;;;;;5.50;1.48;;;17.10;99.90;;;;;;4979370;28;20045;-75
2023/07/25 08:05:15;;;;;;;8.98;1.70;;;17.10;99.90;;;;;;4977147;28;20065;-75
2023/07/25 08:07:41;;;;;;;7.32;1.63;;;17.10;99.90;;;;;;4975111;28;20049;-76
2023/07/25 08:10:07;;;;;;;7.00;1.90;;;17.00;99.90;;;;;;4988753;28;20045;-74
2023/07/25 08:12:33;;;;;;;7.57;1.80;;;17.00;99.90;;;;;;4966741;28;21860;-74
2023/07/25 08:15:00;;;;;;;6.30;1.65;;;17.00;99.90;;;;;;4993339;28;20417;-71
2023/07/25 08:17:26;;;;;;;8.02;1.40;;;17.00;99.90;;;;;;4977948;28;20050;-74
2023/07/25 08:19:52;;;;;;;7.20;1.30;;;17.00;99.90;;;;;;4970246;28;20050;-74
2023/07/25 08:22:18;;;;;;;3.83;1.30;;;17.10;99.90;;;;;;4979475;28;20486;-74
2023/07/25 08:24:43;;;;;;;6.85;1.40;;;17.30;99.90;;;;;;4987151;28;20115;-76
2023/07/25 08:27:09;;;;;;;5.50;1.30;;;17.40;99.90;;;;;;4987183;28;20046;-75
2023/07/25 08:29:42;;;;;;;7.00;1.95;;;17.40;99.90;;;;;;4974042;28;20061;-74
2023/07/25 08:32:09;;;;;;;5.15;1.35;;;17.40;99.90;;;;;;4973795;28;20050;-78
2023/07/25 08:34:36;;;;;;;4.13;1.20;;;17.50;99.90;;;;;;4985894;28;20065;-78
2023/07/25 08:37:03;;;;;;;8.00;1.25;;;17.60;99.90;;;;;;4979420;28;20046;-75
2023/07/25 08:39:29;;;;;;;3.88;1.50;;;17.70;99.90;;;;;;4985339;28;20112;-76
2023/07/25 08:41:57;;;;;;;5.35;1.05;;;17.70;99.90;;;;;;4978244;28;20041;-80
2023/07/25 08:44:24;;;;;;;3.97;1.15;;;17.80;99.90;;;;;;4988933;28;20054;-80
2023/07/25 08:46:52;;;;;;;4.32;1.10;;;17.80;99.90;;;;;;4985835;28;20065;-77
2023/07/25 08:49:24;;;;;;;7.60;1.08;;;17.90;99.90;;;;;;4979980;28;20100;-78
2023/07/25 08:51:54;;;;;;;4.72;1.25;;;18.00;99.90;;;;;;4990324;28;20080;-76
2023/07/25 08:54:43;;;;;;;5.63;1.20;;;18.10;99.90;;;;;;4990089;28;20948;-79
2023/07/25 08:57:10;;;;;;;4.88;1.17;;;18.10;99.90;;;;;;4988271;28;20549;-78
2023/07/25 08:59:36;;;;;;;6.07;1.15;;;18.10;99.90;;;;;;4991006;28;20080;-78
2023/07/25 09:02:02;;;;;;;5.90;1.05;;;18.10;99.90;;;;;;4970927;28;20472;-73
2023/07/25 09:04:28;;;;;;;4.90;1.10;;;18.20;99.90;;;;;;4981711;28;20049;-75
2023/07/25 09:06:54;;;;;;;6.13;1.35;;;18.20;99.90;;;;;;4988970;28;20471;-81
2023/07/25 09:09:19;;;;;;;3.42;1.00;;;18.30;99.90;;;;;;4986389;28;20626;-76
2023/07/25 09:11:45;;;;;;;6.65;1.02;;;18.30;99.90;;;;;;4981644;28;20064;-80
2023/07/25 09:14:12;;;;;;;4.32;0.90;;;18.20;99.90;;;;;;4981217;28;20129;-75
2023/07/25 09:16:38;;;;;;;3.80;1.20;;;18.10;99.90;;;;;;4995906;28;20042;-75
2023/07/25 09:19:04;;;;;;;4.33;1.20;;;18.10;99.90;;;;;;4989306;28;20057;-74
2023/07/25 09:21:30;;;;;;;6.47;1.30;;;18.30;99.90;;;;;;4972765;28;20297;-78
2023/07/25 09:23:58;;;;;;;9.38;1.52;;;18.40;99.90;;;;;;4975338;28;20049;-76
2023/07/25 09:26:25;;;;;;;4.35;1.13;;;18.60;99.90;;;;;;4967653;28;20046;-75
2023/07/25 09:28:56;;;;;;;7.43;1.10;;;18.70;99.90;;;;;;4963737;28;20075;-77
2023/07/25 09:31:23;;;;;;;5.10;1.05;;;18.80;99.90;;;;;;4973969;28;20050;-74
2023/07/25 09:33:51;;;;;;;4.00;0.93;;;18.90;99.90;;;;;;4978153;28;20061;-75
2023/07/25 09:36:20;;;;;;;4.07;1.25;;;18.90;99.90;;;;;;4985152;28;21676;-75
2023/07/25 09:38:58;;;;;;;5.25;0.98;;;18.90;99.90;;;;;;4962946;28;20637;-75
2023/07/25 09:41:24;;;;;;;3.25;0.93;;;18.90;99.90;;;;;;4975044;28;20050;-75
2023/07/25 09:43:51;;;;;;;5.32;1.15;;;19.00;99.90;;;;;;4987504;28;20050;-77
2023/07/25 09:46:18;;;;;;;3.45;1.15;;;19.10;99.90;;;;;;4981129;28;20521;-73
2023/07/25 09:48:46;;;;;;;3.00;1.00;;;19.30;99.90;;;;;;4985719;28;20403;-74
2023/07/25 09:51:12;;;;;;;6.68;1.20;;;19.40;99.90;;;;;;4976405;28;20527;-73
2023/07/25 09:53:45;;;;;;;4.73;0.90;;;19.30;99.90;;;;;;4963995;28;20572;-74
2023/07/25 09:56:11;;;;;;;2.38;1.00;;;19.30;99.90;;;;;;4989441;28;20665;-74
2023/07/25 09:58:37;;;;;;;6.05;0.98;;;19.40;99.90;;;;;;4991426;28;20108;-75
2023/07/25 10:01:03;;;;;;;3.83;1.10;;;19.40;99.90;;;;;;4981421;28;20045;-74
2023/07/25 10:03:30;;;;;;;3.28;1.00;;;19.40;99.90;;;;;;4980538;28;20913;-75
2023/07/25 10:05:57;;;;;;;7.17;1.40;;;19.40;99.90;;;;;;4982754;28;20034;-74
2023/07/25 10:08:26;;;;;;;4.47;1.15;;;19.20;99.90;;;;;;4979704;28;20410;-75
2023/07/25 10:10:55;;;;;;;5.35;1.00;;;19.10;99.90;;;;;;4980739;28;20054;-75
2023/07/25 10:13:21;;;;;;;5.68;1.17;;;19.00;99.90;;;;;;4982629;28;20117;-75
2023/07/25 10:15:49;;;;;;;3.17;0.83;;;19.20;99.90;;;;;;4983242;28;20809;-74
2023/07/25 10:18:20;;;;;;;4.40;0.90;;;19.30;99.90;;;;;;4981485;28;21396;-78
2023/07/25 10:20:48;;;;;;;4.65;1.00;;;19.30;99.90;;;;;;4977194;28;20054;-77
2023/07/25 10:23:14;;;;;;;;;;;19.30;99.90;;;;;;4998201;28;20041;-77
2023/07/25 10:25:40;;;;;;;4.07;1.20;;;19.30;99.90;;;;;;4998053;28;19925;-79
2023/07/25 10:28:06;;;;;;;3.58;1.00;;;19.50;99.90;;;;;;4996953;28;20108;-77
2023/07/25 10:30:42;;;;;;;3.72;1.10;;;19.60;99.90;;;;;;4970744;28;20879;-78
2023/07/25 10:33:09;;;;;;;3.00;0.77;;;19.90;99.90;;;;;;4966269;28;20050;-76
2023/07/25 10:35:42;;;;;;;3.05;1.23;;;20.00;99.90;;;;;;4976030;28;20448;-75
2023/07/25 10:38:09;;;;;;;4.18;0.98;;;20.10;99.00;;;;;;4985858;28;20417;-74
2023/07/25 10:40:52;;;;;;;3.22;0.88;;;20.10;98.80;;;;;;4974897;28;20054;-75
2023/07/25 10:43:22;;;;;;;3.17;1.38;;;20.10;98.80;;;;;;4994791;28;20042;-74
2023/07/25 10:45:51;;;;;;;3.05;0.73;;;20.00;98.90;;;;;;4993389;28;20399;-73
2023/07/25 10:48:34;;;;;;;3.70;1.00;;;19.80;97.90;;;;;;4979280;28;20057;-74
2023/07/25 10:51:07;;;;;;;2.75;1.00;;;19.70;98.20;;;;;;4989068;28;20096;-75
2023/07/25 10:53:34;;;;;;;3.80;1.10;;;19.70;99.10;;;;;;4992848;28;20512;-73
2023/07/25 10:56:03;;;;;;;3.35;0.80;;;19.80;99.50;;;;;;4973023;28;20078;-72
2023/07/25 10:58:30;;;;;;;3.03;0.70;;;19.90;99.00;;;;;;4989492;28;20422;-72
2023/07/25 11:00:56;;;;;;;4.68;0.90;;;20.10;99.10;;;;;;4982761;28;20062;-73
2023/07/25 11:03:33;;;;;;;4.20;0.82;;;20.30;98.40;;;;;;4982998;28;20100;-73
2023/07/25 11:06:07;;;;;;;2.17;0.63;;;20.40;96.70;;;;;;4979376;28;20069;-74
2023/07/25 11:08:41;;;;;;;1.85;0.80;;;20.50;95.30;;;;;;4983645;28;20152;-72
2023/07/25 11:11:09;;;;;;;3.30;0.70;;;20.60;94.20;;;;;;4991825;28;20134;-74
2023/07/25 11:13:40;;;;;;;3.97;0.70;;;20.70;95.00;;;;;;4984598;28;20785;-72
2023/07/25 11:16:11;;;;;;;3.63;0.60;;;20.60;94.00;;;;;;4984474;28;20049;-72
2023/07/25 11:18:47;;;;;;;4.03;1.00;;;20.50;95.20;;;;;;4991786;28;20133;-74
2023/07/25 11:21:14;;;;;;;3.53;0.95;;;20.40;95.20;;;;;;4991679;28;21018;-73
2023/07/25 11:23:40;;;;;;;2.83;0.98;;;20.20;94.10;;;;;;4981692;28;20117;-72
2023/07/25 11:26:08;;;;;;;2.72;0.90;;;20.20;95.00;;;;;;4976783;28;20058;-73
2023/07/25 11:28:38;;;;;;;2.72;0.70;;;20.30;94.70;;;;;;4985760;28;20046;-73
2023/07/25 11:31:04;;;;;;;2.30;0.73;;;20.40;94.90;;;;;;4987652;28;20568;-73
2023/07/25 11:33:42;;;;;;;3.40;1.08;;;20.50;93.20;;;;;;4978954;28;20042;-73
2023/07/25 11:36:07;;;;;;;2.13;0.73;;;20.50;92.60;;;;;;4982664;28;20176;-72
2023/07/25 11:38:37;;;;;;;3.30;0.85;;;20.40;92.40;;;;;;4981115;28;20050;-71
2023/07/25 11:41:04;;;;;;;5.22;0.93;;;20.30;93.70;;;;;;4990572;28;20050;-73
2023/07/25 11:43:31;;;;;;;4.05;0.98;;;20.10;94.50;;;;;;4979492;28;20053;-74
2023/07/25 11:45:58;;;;;;;2.80;0.90;;;19.90;95.30;;;;;;4992818;28;20080;-73
2023/07/25 11:48:25;;;;;;;2.80;0.90;;;19.90;95.90;;;;;;4974714;28;20042;-76
2023/07/25 11:50:51;;;;;;;4.43;0.88;;;20.00;97.00;;;;;;4972663;28;20054;-73
2023/07/25 11:53:22;;;;;;;3.72;0.80;;;20.20;96.80;;;;;;4988582;28;20577;-74
2023/07/25 11:55:51;;;;;;;3.88;1.10;;;20.30;94.70;;;;;;4966614;28;20050;-75
2023/07/25 11:58:20;;;;;;;4.70;0.80;;;20.40;94.30;;;;;;4988456;28;20046;-74
2023/07/25 12:00:51;;;;;;;4.20;0.93;;;20.50;94.50;;;;;;4987038;28;20585;-72
2023/07/25 12:03:22;;;;;;;6.28;1.17;;;20.60;94.10;;;;;;4989457;28;20055;-77
2023/07/25 12:05:56;;;;;;;4.47;1.00;;;20.70;93.40;;;;;;4990200;28;20049;-75
2023/07/25 12:08:37;;;;;;;2.78;1.00;;;20.50;94.30;;;;;;4977372;28;20121;-75
2023/07/25 12:11:05;;;;;;;4.82;1.17;;;20.60;92.90;;;;;;4990935;28;20089;-77
2023/07/25 12:13:31;;;;;;;4.95;1.10;;;20.60;94.60;;;;;;4980096;28;20047;-79
2023/07/25 12:15:57;;;;;;;3.22;0.90;;;20.80;94.10;;;;;;4976014;28;20074;-75
2023/07/25 12:18:31;;;;;;;3.95;1.27;;;20.90;94.80;;;;;;4967279;28;20045;-75
2023/07/25 12:21:02;;;;;;;2.80;0.90;;;21.10;96.30;;;;;;4974951;28;20066;-76
2023/07/25 12:23:30;;;;;;;3.58;1.02;;;21.30;95.40;;;;;;4997944;28;20054;-74
2023/07/25 12:25:59;;;;;;;2.80;0.88;;;21.40;94.40;;;;;;4971500;28;20502;-75
2023/07/25 12:28:25;;;;;;;5.95;1.02;;;21.50;92.80;;;;;;4992913;28;20081;-72
2023/07/25 12:30:51;;;;;;;2.65;0.80;;;21.50;93.10;;;;;;4987177;28;20493;-73
2023/07/25 12:33:16;;;;;;;4.80;0.88;;;21.60;93.10;;;;;;4961181;28;20465;-74
2023/07/25 12:35:42;;;;;;;5.45;1.25;;;21.60;93.00;;;;;;4964897;28;20143;-73
2023/07/25 12:38:08;;;;;;;3.75;1.10;;;21.60;92.70;;;;;;5002985;28;20038;-73
2023/07/25 12:40:33;;;;;;;4.93;1.10;;;21.50;92.70;;;;;;4969961;28;20057;-74